Time;durP1;ratioP1;P1;durP2;ratioP2;P2;SDS_P1;SDS_P2;PMS_P1;PMS_P2;Temp;Humidity;BMP_temperature;BMP_pressure;BME280_temperature;BME280_humidity;BME280_pressure;Samples;Min_cycle;Max_cycle;Signal;HPM_P1;HPM_P2
2021/01/26 00:01:08;;;;;;;;;;;10.60;59.20;;;;;;5106032;28;20215;-65
2021/01/26 00:03:33;;;;;;;;;;;10.60;59.10;;;;;;5105981;28;19904;-67
2021/01/26 00:05:59;;;;;;;;;;;10.60;58.90;;;;;;5105954;28;20214;-68
2021/01/26 00:08:24;;;;;;;;;;;10.60;58.80;;;;;;5105739;28;19915;-68
2021/01/26 00:10:50;;;;;;;;;;;10.60;58.90;;;;;;5105856;28;19904;-67
2021/01/26 00:13:16;;;;;;;;;;;10.60;58.90;;;;;;5105832;28;19912;-65
2021/01/26 00:15:42;;;;;;;;;;;10.60;59.00;;;;;;5105724;28;19911;-63
2021/01/26 00:18:08;;;;;;;;;;;10.60;59.00;;;;;;5105708;28;19904;-64
2021/01/26 00:20:33;;;;;;;;;;;10.60;59.30;;;;;;5105660;28;19942;-67
2021/01/26 00:22:59;;;;;;;;;;;10.60;59.00;;;;;;5105629;28;19908;-67
2021/01/26 00:25:29;;;;;;;;;;;10.60;59.50;;;;;;5105577;28;20192;-67
2021/01/26 00:27:54;;;;;;;;;;;10.60;59.10;;;;;;5105506;28;19953;-67
2021/01/26 00:30:23;;;;;;;;;;;10.60;59.30;;;;;;5105404;28;19912;-67
2021/01/26 00:32:48;;;;;;;;;;;10.60;59.00;;;;;;5104099;28;19904;-66
2021/01/26 00:35:15;;;;;;;;;;;10.60;59.00;;;;;;5105418;28;19904;-66
2021/01/26 00:37:41;;;;;;;;;;;10.60;58.60;;;;;;5105290;28;19916;-65
2021/01/26 00:40:07;;;;;;;;;;;10.60;58.90;;;;;;5105333;28;20245;-66
2021/01/26 00:42:33;;;;;;;;;;;10.60;58.90;;;;;;5104720;28;19911;-67
2021/01/26 00:44:58;;;;;;;;;;;10.60;58.90;;;;;;5105200;28;19904;-68
2021/01/26 00:47:24;;;;;;;;;;;10.50;59.00;;;;;;5105128;28;20160;-67
2021/01/26 00:49:49;;;;;;;;;;;10.50;59.10;;;;;;5104999;28;19915;-67
2021/01/26 00:52:15;;;;;;;;;;;10.50;58.90;;;;;;5105054;28;19981;-68
2021/01/26 00:54:40;;;;;;;;;;;10.50;58.90;;;;;;5104970;28;19923;-67
2021/01/26 00:57:06;;;;;;;;;;;10.50;59.00;;;;;;5105024;28;19912;-67
2021/01/26 00:59:31;;;;;;;;;;;10.50;59.30;;;;;;5104899;28;19912;-66
2021/01/26 01:01:57;;;;;;;;;;;10.50;59.20;;;;;;5104894;28;19910;-64
2021/01/26 01:04:23;;;;;;;;;;;10.50;59.40;;;;;;5104835;28;19904;-68
2021/01/26 01:06:48;;;;;;;;;;;10.50;59.10;;;;;;5104787;28;19980;-66
2021/01/26 01:09:14;;;;;;;;;;;10.50;59.10;;;;;;5104505;28;19939;-65
2021/01/26 01:11:40;;;;;;;;;;;10.50;58.80;;;;;;5104707;28;19911;-68
2021/01/26 01:14:05;;;;;;;;;;;10.50;58.70;;;;;;5104675;28;19918;-67
2021/01/26 01:16:31;;;;;;;;;;;10.50;58.80;;;;;;5104636;28;19935;-66
2021/01/26 01:18:56;;;;;;;;;;;10.50;58.70;;;;;;5104550;28;19976;-65
2021/01/26 01:21:22;;;;;;;;;;;10.50;58.70;;;;;;5104498;28;19983;-65
2021/01/26 01:23:47;;;;;;;;;;;10.50;59.00;;;;;;5104438;28;19908;-65
2021/01/26 01:26:13;;;;;;;;;;;10.50;59.20;;;;;;5104430;28;19926;-68
2021/01/26 01:28:38;;;;;;;;;;;10.50;59.10;;;;;;5104254;28;19943;-68
2021/01/26 01:31:04;;;;;;;;;;;10.40;59.00;;;;;;5104345;28;19904;-67
2021/01/26 01:33:29;;;;;;;;;;;10.40;59.10;;;;;;5104263;28;19945;-66
2021/01/26 01:35:55;;;;;;;;;;;10.40;59.00;;;;;;5104218;28;19904;-67
2021/01/26 01:38:20;;;;;;;;;;;10.50;58.90;;;;;;5104179;28;19983;-66
2021/01/26 01:40:46;;;;;;;;;;;10.50;58.70;;;;;;5104103;28;19919;-65
2021/01/26 01:43:12;;;;;;;;;;;10.50;58.80;;;;;;5104005;28;19904;-66
2021/01/26 01:45:37;;;;;;;;;;;10.50;58.50;;;;;;5104023;28;20196;-64
2021/01/26 01:48:05;;;;;;;;;;;10.50;58.80;;;;;;5103964;28;19904;-67
2021/01/26 01:50:39;;;;;;;;;;;10.40;58.80;;;;;;5103791;28;19916;-67
2021/01/26 01:53:11;;;;;;;;;;;10.40;59.00;;;;;;5103067;28;19904;-67
2021/01/26 01:55:39;;;;;;;;;;;10.40;59.00;;;;;;5103896;28;20220;-66
2021/01/26 01:58:14;;;;;;;;;;;10.40;58.90;;;;;;5103770;28;19912;-68
2021/01/26 02:00:41;;;;;;;;;;;10.40;59.00;;;;;;5103749;28;19904;-68
2021/01/26 02:03:15;;;;;;;;;;;10.40;59.30;;;;;;5103716;28;19915;-65
2021/01/26 02:05:41;;;;;;;;;;;10.40;58.90;;;;;;5103684;28;19911;-67
2021/01/26 02:08:11;;;;;;;;;;;10.40;58.80;;;;;;5103439;28;19912;-66
2021/01/26 02:10:36;;;;;;;;;;;10.40;58.70;;;;;;5103491;28;20124;-64
2021/01/26 02:13:02;;;;;;;;;;;10.50;58.90;;;;;;5103526;28;19904;-67
2021/01/26 02:15:27;;;;;;;;;;;10.40;58.70;;;;;;5103410;28;19976;-63
2021/01/26 02:18:11;;;;;;;;;;;10.40;58.70;;;;;;5103459;28;19904;-69
2021/01/26 02:20:52;;;;;;;;;;;10.40;58.90;;;;;;5103424;28;19903;-63
2021/01/26 02:23:36;;;;;;;;;;;10.40;59.10;;;;;;5103328;28;19904;-64
2021/01/26 02:26:24;;;;;;;;;;;10.40;59.00;;;;;;5103260;28;19912;-66
2021/01/26 02:29:02;;;;;;;;;;;10.40;58.90;;;;;;5103193;28;19957;-66
2021/01/26 02:31:27;;;;;;;;;;;10.40;59.10;;;;;;5103269;28;20160;-67
2021/01/26 02:34:05;;;;;;;;;;;10.40;59.20;;;;;;5103148;28;19904;-68
2021/01/26 02:36:39;;;;;;;;;;;10.40;59.10;;;;;;5103129;28;19918;-66
2021/01/26 02:39:14;;;;;;;;;;;10.40;59.00;;;;;;5103045;28;19904;-67
2021/01/26 02:41:45;;;;;;;;;;;10.40;58.70;;;;;;5103057;28;19950;-67
2021/01/26 02:44:13;;;;;;;;;;;10.40;58.40;;;;;;5102952;28;19949;-66
2021/01/26 02:46:41;;;;;;;;;;;10.40;58.70;;;;;;5102929;28;19904;-66
2021/01/26 02:49:22;;;;;;;;;;;10.40;58.90;;;;;;5102863;28;19914;-67
2021/01/26 02:51:47;;;;;;;;;;;10.40;58.90;;;;;;5102878;28;19904;-66
2021/01/26 02:54:19;;;;;;;;;;;10.40;58.90;;;;;;5102794;28;19924;-67
2021/01/26 02:56:53;;;;;;;;;;;10.40;58.80;;;;;;5102771;28;19910;-69
2021/01/26 02:59:24;;;;;;;;;;;10.40;58.90;;;;;;5102755;28;19911;-68
2021/01/26 03:01:53;;;;;;;;;;;10.40;58.70;;;;;;5102786;28;19975;-68
2021/01/26 03:04:30;;;;;;;;;;;10.40;58.80;;;;;;5102586;28;20164;-67
2021/01/26 03:06:57;;;;;;;;;;;10.30;59.10;;;;;;5102689;28;20224;-66
2021/01/26 03:09:29;;;;;;;;;;;10.40;58.90;;;;;;5102400;28;19924;-69
2021/01/26 03:12:03;;;;;;;;;;;10.40;58.70;;;;;;5102684;28;19958;-66
2021/01/26 03:14:40;;;;;;;;;;;10.30;58.40;;;;;;5102653;28;19904;-66
2021/01/26 03:17:11;;;;;;;;;;;10.30;58.70;;;;;;5102575;28;19912;-65
2021/01/26 03:19:39;;;;;;;;;;;10.30;58.80;;;;;;5102638;28;19912;-67
2021/01/26 03:22:07;;;;;;;;;;;10.30;58.80;;;;;;5102548;28;19914;-68
2021/01/26 03:24:35;;;;;;;;;;;10.30;58.80;;;;;;5102600;28;19912;-68
2021/01/26 03:27:04;;;;;;;;;;;10.30;58.80;;;;;;5102554;28;19915;-65
2021/01/26 03:29:31;;;;;;;;;;;10.30;58.90;;;;;;5102392;28;19915;-66
2021/01/26 03:31:58;;;;;;;;;;;10.30;58.90;;;;;;5102450;28;19974;-66
2021/01/26 03:34:24;;;;;;;;;;;10.40;59.00;;;;;;5102424;28;20211;-66
2021/01/26 03:36:50;;;;;;;;;;;10.40;58.80;;;;;;5102392;28;19904;-67
2021/01/26 03:39:15;;;;;;;;;;;10.40;58.60;;;;;;5102403;28;19904;-66
2021/01/26 03:41:44;;;;;;;;;;;10.40;58.60;;;;;;5102394;28;20213;-66
2021/01/26 03:44:11;;;;;;;;;;;10.30;58.40;;;;;;5102430;28;19905;-67
2021/01/26 03:46:45;;;;;;;;;;;10.30;58.40;;;;;;5102312;28;19912;-66
2021/01/26 03:49:19;;;;;;;;;;;10.30;58.50;;;;;;5102279;28;19915;-66
2021/01/26 03:52:03;;;;;;;;;;;10.30;58.40;;;;;;5102284;28;19949;-67
2021/01/26 03:54:36;;;;;;;;;;;10.30;58.80;;;;;;5102225;28;19912;-68
2021/01/26 03:57:06;;;;;;;;;;;10.30;58.90;;;;;;5102210;28;19947;-65
2021/01/26 03:59:51;;;;;;;;;;;10.30;58.80;;;;;;5102205;28;20002;-66
2021/01/26 04:02:20;;;;;;;;;;;10.20;58.90;;;;;;5090925;28;19911;-66
2021/01/26 04:05:04;;;;;;;;;;;10.30;58.70;;;;;;5102223;28;19904;-67
2021/01/26 04:07:32;;;;;;;;;;;10.30;58.80;;;;;;5102150;28;19910;-66
2021/01/26 04:10:02;;;;;;;;;;;10.30;59.00;;;;;;5101939;28;20005;-65
2021/01/26 04:12:32;;;;;;;;;;;10.30;59.10;;;;;;5102074;28;19942;-63
2021/01/26 04:15:04;;;;;;;;;;;10.30;58.80;;;;;;5102071;28;20100;-65
2021/01/26 04:17:34;;;;;;;;;;;10.30;58.60;;;;;;5104301;28;19911;-67
2021/01/26 04:20:02;;;;;;;;;;;10.30;58.30;;;;;;5105726;28;19988;-67
2021/01/26 04:22:28;;;;;;;;;;;10.30;58.40;;;;;;5105605;28;20131;-65
2021/01/26 04:24:54;;;;;;;;;;;10.30;58.50;;;;;;5105614;28;20171;-67
2021/01/26 04:27:21;;;;;;;;;;;10.20;58.50;;;;;;5105606;28;19904;-68
2021/01/26 04:29:47;;;;;;;;;;;10.20;58.60;;;;;;5105449;28;19987;-68
2021/01/26 04:32:14;;;;;;;;;;;10.20;59.00;;;;;;5105488;28;19904;-67
2021/01/26 04:34:40;;;;;;;;;;;10.20;59.00;;;;;;5105424;28;19908;-67
2021/01/26 04:37:05;;;;;;;;;;;10.30;58.70;;;;;;5105364;28;19982;-67
2021/01/26 04:39:31;;;;;;;;;;;10.30;58.70;;;;;;5105340;28;20049;-66
2021/01/26 04:42:00;;;;;;;;;;;10.30;58.90;;;;;;5105283;28;19912;-65
2021/01/26 04:44:43;;;;;;;;;;;10.30;58.80;;;;;;5105259;28;19946;-66
2021/01/26 04:47:24;;;;;;;;;;;10.20;58.60;;;;;;5105211;28;19932;-66
2021/01/26 04:50:04;;;;;;;;;;;10.30;58.40;;;;;;5105090;28;19957;-68
2021/01/26 04:52:33;;;;;;;;;;;10.30;58.50;;;;;;5105064;28;20104;-68
2021/01/26 04:55:04;;;;;;;;;;;10.30;58.30;;;;;;5105049;28;19939;-66
2021/01/26 04:57:37;;;;;;;;;;;10.20;58.40;;;;;;5104941;28;19904;-65
2021/01/26 05:00:11;;;;;;;;;;;10.20;58.60;;;;;;5104978;28;19966;-68
2021/01/26 05:02:51;;;;;;;;;;;10.20;58.60;;;;;;5105019;28;19939;-67
2021/01/26 05:05:19;;;;;;;;;;;10.20;58.50;;;;;;5104917;28;19904;-66
2021/01/26 05:07:49;;;;;;;;;;;10.20;58.50;;;;;;5104826;28;19904;-68
2021/01/26 05:10:17;;;;;;;;;;;10.20;59.00;;;;;;5104600;28;19922;-66
2021/01/26 05:12:48;;;;;;;;;;;10.20;58.90;;;;;;5104752;28;19904;-69
2021/01/26 05:15:18;;;;;;;;;;;10.20;58.90;;;;;;5104675;28;19907;-66
2021/01/26 05:17:46;;;;;;;;;;;10.20;58.60;;;;;;5104656;28;20306;-66
2021/01/26 05:20:14;;;;;;;;;;;10.20;58.40;;;;;;5104560;28;19905;-64
2021/01/26 05:22:45;;;;;;;;;;;10.20;58.40;;;;;;5104543;28;19911;-67
2021/01/26 05:25:12;;;;;;;;;;;10.20;58.20;;;;;;5105045;28;19908;-68
2021/01/26 05:27:38;;;;;;;;;;;10.20;58.30;;;;;;5103206;28;19904;-65
2021/01/26 05:30:05;;;;;;;;;;;10.20;58.50;;;;;;5104301;28;19943;-66
2021/01/26 05:32:31;;;;;;;;;;;10.20;58.80;;;;;;5104247;28;19912;-66
2021/01/26 05:34:56;;;;;;;;;;;10.10;58.70;;;;;;5104327;28;19912;-67
2021/01/26 05:37:22;;;;;;;;;;;10.20;58.50;;;;;;5104186;28;20131;-64
2021/01/26 05:39:56;;;;;;;;;;;10.20;58.40;;;;;;5104176;28;19911;-66
2021/01/26 05:42:22;;;;;;;;;;;10.20;58.20;;;;;;5104189;28;20258;-64
2021/01/26 05:44:50;;;;;;;;;;;10.20;58.50;;;;;;5104092;28;20192;-69
2021/01/26 05:47:21;;;;;;;;;;;10.20;58.50;;;;;;5104041;28;19952;-64
2021/01/26 05:49:46;;;;;;;;;;;10.20;58.40;;;;;;5102678;28;19991;-65
2021/01/26 05:52:12;;;;;;;;;;;10.20;58.70;;;;;;5103954;28;19904;-66
2021/01/26 05:54:44;;;;;;;;;;;10.20;58.50;;;;;;5103870;28;19911;-66
2021/01/26 05:57:10;;;;;;;;;;;10.20;58.40;;;;;;5103890;28;19910;-68
2021/01/26 05:59:36;;;;;;;;;;;10.20;58.30;;;;;;5103776;28;19947;-66
2021/01/26 06:02:09;;;;;;;;;;;10.20;58.20;;;;;;5103735;28;19904;-64
2021/01/26 06:04:37;;;;;;;;;;;10.10;58.20;;;;;;5103711;28;19945;-67
2021/01/26 06:07:02;;;;;;;;;;;10.10;58.40;;;;;;5103623;28;20192;-67
2021/01/26 06:09:33;;;;;;;;;;;10.10;58.50;;;;;;5103407;28;20017;-65
2021/01/26 06:12:08;;;;;;;;;;;10.10;58.70;;;;;;5103552;28;19963;-68
2021/01/26 06:14:34;;;;;;;;;;;10.20;58.80;;;;;;5103502;28;19975;-66
2021/01/26 06:17:04;;;;;;;;;;;10.20;58.30;;;;;;5103474;28;19904;-66
2021/01/26 06:19:29;;;;;;;;;;;10.20;58.60;;;;;;5103435;28;19911;-67
2021/01/26 06:21:55;;;;;;;;;;;10.20;58.60;;;;;;5103421;28;19904;-67
2021/01/26 06:24:23;;;;;;;;;;;10.20;58.40;;;;;;5103383;28;20210;-68
2021/01/26 06:27:02;;;;;;;;;;;10.20;58.40;;;;;;5103344;28;19911;-68
2021/01/26 06:29:28;;;;;;;;;;;10.10;58.40;;;;;;5103169;28;20024;-68
2021/01/26 06:32:17;;;;;;;;;;;10.10;58.50;;;;;;5103203;28;19908;-66
2021/01/26 06:34:58;;;;;;;;;;;10.10;58.60;;;;;;5103190;28;19911;-67
2021/01/26 06:37:24;;;;;;;;;;;10.10;58.70;;;;;;5103144;28;19911;-67
2021/01/26 06:40:08;;;;;;;;;;;10.10;58.70;;;;;;5102675;28;19931;-69
2021/01/26 06:42:48;;;;;;;;;;;10.10;58.60;;;;;;5103122;28;19908;-66
2021/01/26 06:45:17;;;;;;;;;;;10.10;58.40;;;;;;5103045;28;19945;-67
2021/01/26 06:48:01;;;;;;;;;;;10.10;58.30;;;;;;5103009;28;19904;-66
2021/01/26 06:50:29;;;;;;;;;;;10.10;58.50;;;;;;5101714;28;19916;-66
2021/01/26 06:53:18;;;;;;;;;;;10.10;58.60;;;;;;5102966;28;19935;-69
2021/01/26 06:55:56;;;;;;;;;;;10.10;58.50;;;;;;5099845;28;19933;-66
2021/01/26 06:58:21;;;;;;;;;;;10.10;58.50;;;;;;5102840;28;20113;-68
2021/01/26 07:01:05;;;;;;;;;;;10.10;58.10;;;;;;5102781;28;19979;-66
2021/01/26 07:03:31;;;;;;;;;;;10.20;58.30;;;;;;5102782;28;19912;-66
2021/01/26 07:05:59;;;;;;;;;;;10.20;58.20;;;;;;5102747;28;20107;-65
2021/01/26 07:08:31;;;;;;;;;;;10.20;58.00;;;;;;5102566;28;19974;-68
2021/01/26 07:10:59;;;;;;;;;;;10.10;58.30;;;;;;5102721;28;19961;-67
2021/01/26 07:13:24;;;;;;;;;;;10.10;58.40;;;;;;5102700;28;20096;-68
2021/01/26 07:15:53;;;;;;;;;;;10.10;58.60;;;;;;5102635;28;19904;-67
2021/01/26 07:18:51;;;;;;;;;;;10.10;58.70;;;;;;5102564;28;20036;-67
2021/01/26 07:21:22;;;;;;;;;;;10.10;58.70;;;;;;5090431;28;19920;-64
2021/01/26 07:23:48;;;;;;;;;;;10.10;58.60;;;;;;5102549;28;19970;-66
2021/01/26 07:26:13;;;;;;;;;;;10.10;58.20;;;;;;5102530;28;19975;-66
2021/01/26 07:28:48;;;;;;;;;;;10.20;57.90;;;;;;5102461;28;19981;-68
2021/01/26 07:31:14;;;;;;;;;;;10.20;58.10;;;;;;5102514;28;19911;-66
2021/01/26 07:34:15;;;;;;;;;;;10.20;58.00;;;;;;5102547;28;19904;-68
2021/01/26 07:36:44;;;;;;;;;;;10.20;57.80;;;;;;5080064;28;20204;-68
2021/01/26 07:39:19;;;;;;;;;;;10.20;58.20;;;;;;5098581;28;20195;-66
2021/01/26 07:42:03;;;;;;;;;;;10.20;58.10;;;;;;5102376;28;20073;-69
2021/01/26 07:44:33;;;;;;;;;;;10.20;58.30;;;;;;5102424;28;19942;-66
2021/01/26 07:47:03;;;;;;;;;;;10.20;58.20;;;;;;5102335;28;19949;-67
2021/01/26 07:49:33;;;;;;;;;;;10.10;58.10;;;;;;5102347;28;19949;-67
2021/01/26 07:52:01;;;;;;;;;;;10.10;57.90;;;;;;5103989;28;19911;-65
2021/01/26 07:54:45;;;;;;;;;;;10.10;58.20;;;;;;5106226;28;20146;-65
2021/01/26 07:57:10;;;;;;;;;;;10.10;58.20;;;;;;5106239;28;20147;-69
2021/01/26 07:59:40;;;;;;;;;;;10.10;58.20;;;;;;5106200;28;19919;-65
2021/01/26 08:02:13;;;;;;;;;;;10.20;58.10;;;;;;5106086;28;19944;-67
2021/01/26 08:04:40;;;;;;;;;;;10.20;57.70;;;;;;5106062;28;19975;-68
2021/01/26 08:07:05;;;;;;;;;;;10.30;57.60;;;;;;5106000;28;19904;-67
2021/01/26 08:09:45;;;;;;;;;;;10.40;57.30;;;;;;5105737;28;19924;-66
2021/01/26 08:12:12;;;;;;;;;;;10.40;57.30;;;;;;5105921;28;19967;-68
2021/01/26 08:14:40;;;;;;;;;;;10.40;57.50;;;;;;5105869;28;19957;-64
2021/01/26 08:17:11;;;;;;;;;;;10.40;57.40;;;;;;5105834;28;19954;-66
2021/01/26 08:19:48;;;;;;;;;;;10.40;57.80;;;;;;5105816;28;19919;-64
2021/01/26 08:22:23;;;;;;;;;;;10.40;57.60;;;;;;5105769;28;20185;-66
2021/01/26 08:24:58;;;;;;;;;;;10.40;57.80;;;;;;5105642;28;19905;-68
2021/01/26 08:27:29;;;;;;;;;;;10.40;57.70;;;;;;5105687;28;19946;-68
2021/01/26 08:29:59;;;;;;;;;;;10.40;57.70;;;;;;5105543;28;20208;-68
2021/01/26 08:32:25;;;;;;;;;;;10.40;57.60;;;;;;5105541;28;19904;-68
2021/01/26 08:34:56;;;;;;;;;;;10.50;57.50;;;;;;5105529;28;19912;-67
2021/01/26 08:37:24;;;;;;;;;;;10.50;57.70;;;;;;5105444;28;20239;-66
2021/01/26 08:39:51;;;;;;;;;;;10.50;57.80;;;;;;5105395;28;20136;-67
2021/01/26 08:42:35;;;;;;;;;;;10.50;57.60;;;;;;5105428;28;19912;-67
2021/01/26 08:45:00;;;;;;;;;;;10.50;57.60;;;;;;5105323;28;19905;-67
2021/01/26 08:47:41;;;;;;;;;;;10.50;57.90;;;;;;5105265;28;19918;-66
2021/01/26 08:50:15;;;;;;;;;;;10.60;57.70;;;;;;5105146;28;19923;-66
2021/01/26 08:52:41;;;;;;;;;;;10.60;57.50;;;;;;5105186;28;19999;-68
2021/01/26 08:55:06;;;;;;;;;;;10.50;57.50;;;;;;5105140;28;19912;-66
2021/01/26 08:57:32;;;;;;;;;;;10.60;57.60;;;;;;5105066;28;19931;-63
2021/01/26 09:00:10;;;;;;;;;;;10.60;57.60;;;;;;5105063;28;19954;-63
2021/01/26 09:02:38;;;;;;;;;;;10.60;57.50;;;;;;5104644;28;19957;-66
2021/01/26 09:05:04;;;;;;;;;;;10.60;57.60;;;;;;5104995;28;19905;-67
2021/01/26 09:07:49;;;;;;;;;;;10.60;57.50;;;;;;5104900;28;20104;-64
2021/01/26 09:10:25;;;;;;;;;;;10.60;57.70;;;;;;5104465;28;19923;-68
2021/01/26 09:13:11;;;;;;;;;;;10.60;57.50;;;;;;5104768;28;19990;-65
2021/01/26 09:15:43;;;;;;;;;;;10.60;57.70;;;;;;5104571;27;19912;-66
2021/01/26 09:18:12;;;;;;;;;;;10.60;57.60;;;;;;5104654;28;19966;-67
2021/01/26 09:20:37;;;;;;;;;;;10.70;57.70;;;;;;5104292;28;19946;-66
2021/01/26 09:23:04;;;;;;;;;;;10.70;57.60;;;;;;5104620;28;20084;-66
2021/01/26 09:25:32;;;;;;;;;;;10.70;57.50;;;;;;5104491;28;19904;-66
2021/01/26 09:27:59;;;;;;;;;;;10.70;57.80;;;;;;5104523;28;19905;-66
2021/01/26 09:30:25;;;;;;;;;;;10.70;57.80;;;;;;5104341;28;20251;-68
2021/01/26 09:32:56;;;;;;;;;;;10.70;57.50;;;;;;5104423;28;19912;-66
2021/01/26 09:35:22;;;;;;;;;;;10.80;57.80;;;;;;5104295;28;19904;-65
2021/01/26 09:37:58;;;;;;;;;;;10.80;57.50;;;;;;5104311;28;20069;-65
2021/01/26 09:40:24;;;;;;;;;;;10.80;57.80;;;;;;5104234;28;19950;-66
2021/01/26 09:42:49;;;;;;;;;;;10.80;57.70;;;;;;5104266;28;20130;-68
2021/01/26 09:45:17;;;;;;;;;;;10.80;57.60;;;;;;5104395;28;19911;-66
2021/01/26 09:47:43;;;;;;;;;;;10.80;57.70;;;;;;5104088;28;19908;-67
2021/01/26 09:50:12;;;;;;;;;;;10.80;57.70;;;;;;5103933;28;19974;-67
2021/01/26 09:52:38;;;;;;;;;;;10.80;57.70;;;;;;5104008;28;19926;-68
2021/01/26 09:55:07;;;;;;;;;;;10.70;57.90;;;;;;5103979;28;19946;-66
2021/01/26 09:57:33;;;;;;;;;;;10.70;57.90;;;;;;5103929;28;20188;-65
2021/01/26 09:59:58;;;;;;;;;;;10.70;57.90;;;;;;5103810;28;19911;-67
2021/01/26 10:02:25;;;;;;;;;;;10.80;57.80;;;;;;5103808;28;20097;-66
2021/01/26 10:04:51;;;;;;;;;;;10.80;57.80;;;;;;5103757;28;19908;-68
2021/01/26 10:07:18;;;;;;;;;;;10.80;57.90;;;;;;5103712;28;19965;-65
2021/01/26 10:09:43;;;;;;;;;;;10.80;57.70;;;;;;5103439;28;19916;-66
2021/01/26 10:12:17;;;;;;;;;;;10.80;57.70;;;;;;5103648;28;19905;-69
2021/01/26 10:15:03;;;;;;;;;;;10.80;57.80;;;;;;5102870;28;19904;-68
2021/01/26 10:17:28;;;;;;;;;;;10.90;57.70;;;;;;5103609;28;19911;-66
2021/01/26 10:19:56;;;;;;;;;;;10.80;57.80;;;;;;5103525;28;19904;-67
2021/01/26 10:22:22;;;;;;;;;;;10.80;57.80;;;;;;5103452;28;19948;-65
2021/01/26 10:24:47;;;;;;;;;;;10.80;57.60;;;;;;5103411;28;19912;-63
2021/01/26 10:27:21;;;;;;;;;;;10.90;57.70;;;;;;5103346;28;20196;-69
2021/01/26 10:29:47;;;;;;;;;;;10.90;57.80;;;;;;5103250;28;19939;-67
2021/01/26 10:32:14;;;;;;;;;;;10.90;58.10;;;;;;5103292;28;19904;-66
2021/01/26 10:34:44;;;;;;;;;;;10.90;57.70;;;;;;5103288;28;20081;-67
2021/01/26 10:37:15;;;;;;;;;;;10.90;57.60;;;;;;5103247;28;19904;-67
2021/01/26 10:39:41;;;;;;;;;;;10.90;57.40;;;;;;5103229;28;19943;-66
2021/01/26 10:42:14;;;;;;;;;;;10.90;57.50;;;;;;5103131;28;19946;-67
2021/01/26 10:44:46;;;;;;;;;;;10.90;58.20;;;;;;5103148;28;19904;-67
2021/01/26 10:47:16;;;;;;;;;;;11.00;57.50;;;;;;5103058;28;19970;-65
2021/01/26 10:49:42;;;;;;;;;;;10.90;57.50;;;;;;5102991;28;19922;-66
2021/01/26 10:52:08;;;;;;;;;;;10.90;57.80;;;;;;5102997;28;19912;-65
2021/01/26 10:54:34;;;;;;;;;;;10.80;57.80;;;;;;5103016;28;19911;-66
2021/01/26 10:57:00;;;;;;;;;;;10.90;57.80;;;;;;5102921;28;19911;-67
2021/01/26 10:59:25;;;;;;;;;;;10.90;57.70;;;;;;5102939;28;19943;-65
2021/01/26 11:01:51;;;;;;;;;;;10.90;57.40;;;;;;5102894;28;19935;-68
2021/01/26 11:04:17;;;;;;;;;;;10.90;57.50;;;;;;5102871;28;19975;-65
2021/01/26 11:06:43;;;;;;;;;;;11.00;57.40;;;;;;5102808;28;19999;-67
2021/01/26 11:09:09;;;;;;;;;;;11.00;58.10;;;;;;5102563;28;19938;-66
2021/01/26 11:11:35;;;;;;;;;;;10.90;57.60;;;;;;5102782;28;20115;-68
2021/01/26 11:14:01;;;;;;;;;;;10.90;57.50;;;;;;5102787;28;19912;-67
2021/01/26 11:16:27;;;;;;;;;;;10.90;57.50;;;;;;5103000;28;19975;-66
2021/01/26 11:18:53;;;;;;;;;;;11.00;57.40;;;;;;5102673;28;20294;-66
2021/01/26 11:21:19;;;;;;;;;;;11.00;57.30;;;;;;5102668;28;19967;-68
2021/01/26 11:23:44;;;;;;;;;;;11.00;57.40;;;;;;5102638;28;19911;-67
2021/01/26 11:26:12;;;;;;;;;;;11.00;57.40;;;;;;5105003;28;19975;-67
2021/01/26 11:28:37;;;;;;;;;;;10.90;57.30;;;;;;5106704;28;19967;-64
2021/01/26 11:31:03;;;;;;;;;;;11.00;57.40;;;;;;5106782;28;19923;-68
2021/01/26 11:33:29;;;;;;;;;;;11.00;57.30;;;;;;5106761;28;20097;-67
2021/01/26 11:35:54;;;;;;;;;;;11.10;57.30;;;;;;5106670;28;19911;-67
2021/01/26 11:38:20;;;;;;;;;;;11.10;57.40;;;;;;5106615;28;19975;-66
2021/01/26 11:40:46;;;;;;;;;;;11.10;57.20;;;;;;5106561;28;19956;-68
2021/01/26 11:43:12;;;;;;;;;;;11.10;57.20;;;;;;5106535;28;19937;-66
2021/01/26 11:45:38;;;;;;;;;;;11.10;57.10;;;;;;5106490;28;19904;-65
2021/01/26 11:48:05;;;;;;;;;;;11.10;57.10;;;;;;5106490;28;20247;-69
2021/01/26 11:50:31;;;;;;;;;;;11.10;57.10;;;;;;5106384;28;19920;-68
2021/01/26 11:52:56;;;;;;;;;;;11.00;57.40;;;;;;5106397;28;20238;-66
2021/01/26 11:55:26;;;;;;;;;;;11.00;57.80;;;;;;5106329;28;19946;-65
2021/01/26 11:57:52;;;;;;;;;;;11.00;57.70;;;;;;5106214;28;19962;-66
2021/01/26 12:00:19;;;;;;;;;;;10.90;57.60;;;;;;5106472;28;19908;-66
2021/01/26 12:02:45;;;;;;;;;;;10.90;57.90;;;;;;5106185;28;20147;-67
2021/01/26 12:05:12;;;;;;;;;;;10.90;57.90;;;;;;5106099;28;19912;-68
2021/01/26 12:07:37;;;;;;;;;;;11.10;57.90;;;;;;5106152;28;19904;-67
2021/01/26 12:10:03;;;;;;;;;;;11.00;57.40;;;;;;5105726;28;20104;-67
2021/01/26 12:12:29;;;;;;;;;;;11.00;57.40;;;;;;5105998;28;19904;-67
2021/01/26 12:14:54;;;;;;;;;;;11.00;57.80;;;;;;5105943;28;19904;-69
2021/01/26 12:17:20;;;;;;;;;;;11.00;57.50;;;;;;5105939;28;19904;-67
2021/01/26 12:19:45;;;;;;;;;;;11.00;57.70;;;;;;5105816;28;19919;-66
2021/01/26 12:22:11;;;;;;;;;;;11.00;57.50;;;;;;5105877;28;20139;-66
2021/01/26 12:24:37;;;;;;;;;;;11.00;57.60;;;;;;5105822;28;19988;-66
2021/01/26 12:27:02;;;;;;;;;;;11.00;57.50;;;;;;5105725;28;19904;-64
2021/01/26 12:29:28;;;;;;;;;;;11.00;57.70;;;;;;5105609;28;19957;-67
2021/01/26 12:31:53;;;;;;;;;;;10.90;57.60;;;;;;5105639;28;19904;-65
2021/01/26 12:34:19;;;;;;;;;;;10.90;57.70;;;;;;5105642;28;19904;-68
2021/01/26 12:36:45;;;;;;;;;;;10.90;57.90;;;;;;5105120;28;19926;-68
2021/01/26 12:39:10;;;;;;;;;;;11.00;57.70;;;;;;5105216;28;19935;-68
2021/01/26 12:41:36;;;;;;;;;;;11.00;57.60;;;;;;5104280;28;19951;-66
2021/01/26 12:44:02;;;;;;;;;;;11.00;57.60;;;;;;5105425;28;19926;-65
2021/01/26 12:46:28;;;;;;;;;;;10.90;57.60;;;;;;5104174;28;20164;-64
2021/01/26 12:48:53;;;;;;;;;;;10.90;57.60;;;;;;5105252;28;19904;-68
2021/01/26 12:51:19;;;;;;;;;;;10.90;57.90;;;;;;5105259;28;19919;-68
2021/01/26 12:53:45;;;;;;;;;;;10.80;57.80;;;;;;5105201;28;19908;-68
2021/01/26 12:56:10;;;;;;;;;;;10.80;58.50;;;;;;5103898;28;19954;-68
2021/01/26 12:58:36;;;;;;;;;;;10.80;57.80;;;;;;5105116;28;19935;-66
2021/01/26 13:01:01;;;;;;;;;;;10.80;58.10;;;;;;5105104;28;19939;-66
2021/01/26 13:03:27;;;;;;;;;;;10.90;58.70;;;;;;5105008;28;20255;-68
2021/01/26 13:05:53;;;;;;;;;;;10.90;57.70;;;;;;5104991;28;20100;-67
2021/01/26 13:08:18;;;;;;;;;;;11.00;57.70;;;;;;5104998;28;19911;-68
2021/01/26 13:10:44;;;;;;;;;;;11.00;57.20;;;;;;5104852;28;19916;-68
2021/01/26 13:13:09;;;;;;;;;;;11.00;57.50;;;;;;5104814;28;20131;-68
2021/01/26 13:15:35;;;;;;;;;;;11.10;57.20;;;;;;5104814;28;20071;-68
2021/01/26 13:18:00;;;;;;;;;;;11.20;57.20;;;;;;5104747;28;19983;-66
2021/01/26 13:20:26;;;;;;;;;;;11.40;56.40;;;;;;5104667;28;19973;-64
2021/01/26 13:22:51;;;;;;;;;;;11.30;56.50;;;;;;5104627;28;19920;-64
2021/01/26 13:25:19;;;;;;;;;;;11.30;57.00;;;;;;5104578;28;19904;-66
2021/01/26 13:27:45;;;;;;;;;;;11.30;56.70;;;;;;5104575;28;20077;-68
2021/01/26 13:30:11;;;;;;;;;;;11.20;56.80;;;;;;5104414;28;19908;-68
2021/01/26 13:32:37;;;;;;;;;;;11.20;56.80;;;;;;5104387;28;19919;-67
2021/01/26 13:35:04;;;;;;;;;;;11.10;57.20;;;;;;5103462;28;19971;-65
2021/01/26 13:37:29;;;;;;;;;;;11.20;57.00;;;;;;5104255;28;19910;-67
2021/01/26 13:39:55;;;;;;;;;;;11.10;57.40;;;;;;5104276;28;19904;-67
2021/01/26 13:42:20;;;;;;;;;;;11.10;57.30;;;;;;5104237;28;19917;-67
2021/01/26 13:44:49;;;;;;;;;;;11.20;57.40;;;;;;5104228;28;19912;-66
2021/01/26 13:47:15;;;;;;;;;;;11.30;57.20;;;;;;5104164;28;19904;-69
2021/01/26 13:49:41;;;;;;;;;;;11.30;57.10;;;;;;5103000;28;20220;-67
2021/01/26 13:52:06;;;;;;;;;;;11.30;56.90;;;;;;5104063;28;19912;-68
2021/01/26 13:54:32;;;;;;;;;;;11.30;57.00;;;;;;5103992;28;19904;-67
2021/01/26 13:56:57;;;;;;;;;;;11.30;56.70;;;;;;5103972;28;19984;-65
2021/01/26 13:59:23;;;;;;;;;;;11.20;56.80;;;;;;5103954;28;19904;-66
2021/01/26 14:01:49;;;;;;;;;;;11.20;57.20;;;;;;5103824;28;19910;-67
2021/01/26 14:04:15;;;;;;;;;;;11.20;57.30;;;;;;5103838;28;19908;-67
2021/01/26 14:06:40;;;;;;;;;;;11.30;56.90;;;;;;5103786;28;19908;-68
2021/01/26 14:09:07;;;;;;;;;;;11.30;56.70;;;;;;5103483;28;20132;-67
2021/01/26 14:11:33;;;;;;;;;;;11.30;56.90;;;;;;5103700;28;19975;-66
2021/01/26 14:13:58;;;;;;;;;;;11.20;56.80;;;;;;5103679;28;19911;-68
2021/01/26 14:16:24;;;;;;;;;;;11.40;56.80;;;;;;5103594;28;19904;-67
2021/01/26 14:18:49;;;;;;;;;;;11.40;56.90;;;;;;5103576;28;19978;-67
2021/01/26 14:21:15;;;;;;;;;;;11.40;56.50;;;;;;5103531;28;19904;-68
2021/01/26 14:23:41;;;;;;;;;;;11.30;56.60;;;;;;5103467;28;20135;-68
2021/01/26 14:26:07;;;;;;;;;;;11.30;56.90;;;;;;5103404;28;20234;-67